createdAt,value
2022-08-24T00:02:01.506Z,4.10
2022-08-24T00:04:32.063Z,4.38
2022-08-24T00:07:02.147Z,4.40
2022-08-24T00:09:31.996Z,4.50
2022-08-24T00:11:59.192Z,4.10
2022-08-24T00:14:26.662Z,4.45
2022-08-24T00:16:54.366Z,5.00
2022-08-24T00:19:21.614Z,4.80
2022-08-24T00:21:49.135Z,4.78
2022-08-24T00:24:16.465Z,4.80
2022-08-24T00:26:45.962Z,4.28
2022-08-24T00:29:15.615Z,4.88
2022-08-24T00:31:43.254Z,4.93
2022-08-24T00:34:10.924Z,5.07
2022-08-24T00:36:38.995Z,7.30
2022-08-24T00:39:08.124Z,7.78
2022-08-24T00:41:39.543Z,8.75
2022-08-24T00:44:07.535Z,9.95
2022-08-24T00:47:12.456Z,9.00
2022-08-24T00:49:48.012Z,8.45
2022-08-24T00:52:43.851Z,9.43
2022-08-24T00:55:22.576Z,12.48
2022-08-24T00:57:57.687Z,11.25
2022-08-24T01:00:32.220Z,9.80
2022-08-24T01:03:04.652Z,9.55
2022-08-24T01:05:35.171Z,8.93
2022-08-24T01:08:06.214Z,7.90
2022-08-24T01:10:40.419Z,6.85
2022-08-24T01:13:13.616Z,6.72
2022-08-24T01:15:49.575Z,7.43
2022-08-24T01:18:40.355Z,8.07
2022-08-24T01:21:16.309Z,8.30
2022-08-24T01:23:58.008Z,7.50
2022-08-24T01:26:35.978Z,7.50
2022-08-24T01:29:16.872Z,7.80
2022-08-24T01:31:44.616Z,8.23
2022-08-24T01:34:13.275Z,9.15
2022-08-24T01:36:55.853Z,13.68
2022-08-24T01:39:36.414Z,10.60
2022-08-24T01:42:04.641Z,9.68
2022-08-24T01:44:36.177Z,12.48
2022-08-24T01:47:07.327Z,14.65
2022-08-24T01:49:42.975Z,15.23
2022-08-24T01:52:15.928Z,13.02
2022-08-24T01:54:43.454Z,12.70
2022-08-24T01:57:16.330Z,14.27
2022-08-24T01:59:45.719Z,14.30
2022-08-24T02:02:25.035Z,12.13
2022-08-24T02:04:52.187Z,11.55
2022-08-24T02:07:19.700Z,10.65
2022-08-24T02:09:47.174Z,9.38
2022-08-24T02:12:16.494Z,10.07
2022-08-24T02:14:44.197Z,10.20
2022-08-24T02:17:12.368Z,10.93
2022-08-24T02:19:43.244Z,10.18
2022-08-24T02:22:11.808Z,10.27
2022-08-24T02:24:40.387Z,9.63
2022-08-24T02:27:09.573Z,11.13
2022-08-24T02:29:36.750Z,11.95
2022-08-24T02:32:05.009Z,12.75
2022-08-24T02:34:32.084Z,12.02
2022-08-24T02:36:59.947Z,12.20
2022-08-24T02:39:28.217Z,12.55
2022-08-24T02:41:56.356Z,11.00
2022-08-24T02:44:28.102Z,11.95
2022-08-24T02:46:55.368Z,12.63
2022-08-24T02:49:23.199Z,12.10
2022-08-24T02:51:51.246Z,12.18
2022-08-24T02:54:21.135Z,12.25
2022-08-24T02:56:51.575Z,11.55
2022-08-24T02:59:19.448Z,11.18
2022-08-24T03:01:49.763Z,12.70
2022-08-24T03:04:18.910Z,12.32
2022-08-24T03:06:47.184Z,12.23
2022-08-24T03:09:14.647Z,12.02
2022-08-24T03:11:42.688Z,12.77
2022-08-24T03:14:13.391Z,12.55
2022-08-24T03:16:41.582Z,12.40
2022-08-24T03:19:08.863Z,12.23
2022-08-24T03:21:38.133Z,11.50
2022-08-24T03:24:05.723Z,12.07
2022-08-24T03:26:33.278Z,12.65
2022-08-24T03:29:00.842Z,13.50
2022-08-24T03:31:28.634Z,12.90
2022-08-24T03:33:55.857Z,13.60
2022-08-24T03:36:23.032Z,14.32
2022-08-24T03:38:50.528Z,14.07
2022-08-24T03:41:18.702Z,13.77
2022-08-24T03:43:46.384Z,13.55
2022-08-24T03:46:25.172Z,13.52
2022-08-24T03:48:55.741Z,14.10
2022-08-24T03:51:27.520Z,12.18
2022-08-24T03:53:58.632Z,13.35
2022-08-24T03:56:28.900Z,13.65
2022-08-24T03:58:57.375Z,13.90
2022-08-24T04:01:27.951Z,13.18
2022-08-24T04:03:56.850Z,12.98
2022-08-24T04:06:29.338Z,12.95
2022-08-24T04:08:56.882Z,13.23
2022-08-24T04:11:28.259Z,12.73
2022-08-24T04:13:58.249Z,12.27
2022-08-24T04:16:29.413Z,12.95
2022-08-24T04:19:08.282Z,12.93
2022-08-24T04:21:37.055Z,13.48
2022-08-24T04:24:10.383Z,13.63
2022-08-24T04:26:45.191Z,12.40
2022-08-24T04:29:19.387Z,11.43
2022-08-24T04:31:54.032Z,12.85
2022-08-24T04:34:22.803Z,15.43
2022-08-24T04:36:50.916Z,14.13
2022-08-24T04:39:18.738Z,14.57
2022-08-24T04:42:03.194Z,14.60
2022-08-24T04:44:36.450Z,15.13
2022-08-24T04:47:05.509Z,14.20
2022-08-24T04:49:33.484Z,13.30
2022-08-24T04:52:01.410Z,12.60
2022-08-24T04:54:29.524Z,14.77
2022-08-24T04:57:06.911Z,15.43
2022-08-24T04:59:34.333Z,15.50
2022-08-24T05:02:01.896Z,14.60
2022-08-24T05:04:29.244Z,17.20
2022-08-24T05:06:58.813Z,14.65
2022-08-24T05:09:25.948Z,15.05
2022-08-24T05:11:55.582Z,14.73
2022-08-24T05:14:29.066Z,16.15
2022-08-24T05:16:59.778Z,16.15
2022-08-24T05:19:31.468Z,16.38
2022-08-24T05:22:00.695Z,18.55
2022-08-24T05:24:29.981Z,17.20
2022-08-24T05:26:58.392Z,17.00
2022-08-24T05:29:27.154Z,15.27
2022-08-24T05:31:54.775Z,14.35
2022-08-24T05:34:24.156Z,13.80
2022-08-24T05:36:52.116Z,11.85
2022-08-24T05:39:45.073Z,13.25
2022-08-24T05:42:13.598Z,11.27
2022-08-24T05:44:46.596Z,12.10
2022-08-24T05:47:15.728Z,12.15
2022-08-24T05:49:44.021Z,13.40
2022-08-24T05:52:11.364Z,13.75
2022-08-24T05:54:40.864Z,14.18
2022-08-24T05:57:12.722Z,14.02
2022-08-24T05:59:51.899Z,14.65
2022-08-24T06:02:20.338Z,14.82
2022-08-24T06:04:47.974Z,13.75
2022-08-24T06:07:16.478Z,14.43
2022-08-24T06:09:49.963Z,16.80
2022-08-24T06:12:17.206Z,17.73
2022-08-24T06:14:48.117Z,18.45
2022-08-24T06:17:19.846Z,18.10
2022-08-24T06:19:47.290Z,18.30
2022-08-24T06:22:15.399Z,13.68
2022-08-24T06:25:01.315Z,16.27
2022-08-24T06:27:29.424Z,19.15
2022-08-24T06:30:03.691Z,17.25
2022-08-24T06:32:49.220Z,16.92
2022-08-24T06:35:46.802Z,16.95
2022-08-24T06:38:14.090Z,13.65
2022-08-24T06:40:42.814Z,14.75
2022-08-24T06:43:11.070Z,16.23
2022-08-24T06:45:56.887Z,18.75
2022-08-24T06:48:31.032Z,16.00
2022-08-24T06:50:59.899Z,18.10
2022-08-24T06:53:28.932Z,17.92
2022-08-24T06:55:59.223Z,18.52
2022-08-24T06:58:28.862Z,18.40
2022-08-24T07:00:57.385Z,17.02
2022-08-24T07:03:26.678Z,17.45
2022-08-24T07:06:07.500Z,17.35
2022-08-24T07:11:15.275Z,18.10
2022-08-24T07:13:43.193Z,17.90
2022-08-24T07:16:10.766Z,16.15
2022-08-24T07:18:40.985Z,16.40
2022-08-24T07:21:09.395Z,17.48
2022-08-24T07:23:42.920Z,19.52
2022-08-24T07:26:21.589Z,17.92
2022-08-24T07:28:52.969Z,16.73
2022-08-24T07:31:22.168Z,17.77
2022-08-24T07:33:57.049Z,15.00
2022-08-24T07:36:25.291Z,15.48
2022-08-24T07:38:58.500Z,15.65
2022-08-24T07:41:43.436Z,13.73
2022-08-24T07:44:17.348Z,12.52
2022-08-24T07:46:45.135Z,11.85
2022-08-24T07:49:31.618Z,12.05
2022-08-24T07:52:03.553Z,11.40
2022-08-24T07:54:30.816Z,11.55
2022-08-24T07:57:00.298Z,11.55
2022-08-24T07:59:27.516Z,9.40
2022-08-24T08:01:56.633Z,8.43
2022-08-24T08:04:26.003Z,8.88
2022-08-24T08:09:27.470Z,8.30
2022-08-24T08:11:54.822Z,10.15
2022-08-24T08:14:22.163Z,7.82
2022-08-24T08:16:50.272Z,7.50
2022-08-24T08:19:17.712Z,7.55
2022-08-24T08:22:10.226Z,6.32
2022-08-24T08:24:57.268Z,6.25
2022-08-24T08:27:25.208Z,4.90
2022-08-24T08:29:52.818Z,5.30
2022-08-24T08:32:20.215Z,7.50
2022-08-24T08:34:49.969Z,5.68
2022-08-24T08:37:17.956Z,5.97
2022-08-24T08:39:45.764Z,4.80
2022-08-24T08:42:37.131Z,4.70
2022-08-24T08:45:42.494Z,4.93
2022-08-24T08:48:58.519Z,5.03
2022-08-24T08:51:48.584Z,4.90
2022-08-24T08:55:05.714Z,5.55
2022-08-24T08:58:32.782Z,5.07
2022-08-24T09:01:17.773Z,5.28
2022-08-24T09:04:55.375Z,4.18
2022-08-24T09:10:39.688Z,3.42
2022-08-24T09:13:45.745Z,2.35
2022-08-24T09:16:39.562Z,1.20
2022-08-24T09:19:33.911Z,1.40
2022-08-24T09:22:22.247Z,1.50
2022-08-24T09:24:54.362Z,1.20
2022-08-24T09:28:18.296Z,1.50
2022-08-24T09:34:30.656Z,1.08
2022-08-24T09:37:21.865Z,1.70
2022-08-24T09:40:05.003Z,1.77
2022-08-24T09:43:24.251Z,1.67
2022-08-24T09:46:13.153Z,1.52
2022-08-24T09:49:14.523Z,1.50
2022-08-24T09:52:28.103Z,1.27
2022-08-24T09:55:53.944Z,1.37
2022-08-24T09:58:42.167Z,1.60
2022-08-24T10:01:33.525Z,1.50
2022-08-24T10:04:21.104Z,1.50
2022-08-24T10:07:25.909Z,1.67
2022-08-24T10:10:28.440Z,1.63
2022-08-24T10:13:27.092Z,1.60
2022-08-24T10:16:40.744Z,1.23
2022-08-24T10:19:49.328Z,2.13
2022-08-24T10:22:40.959Z,1.80
2022-08-24T10:25:57.988Z,2.05
2022-08-24T10:29:08.181Z,1.42
2022-08-24T10:31:48.544Z,1.83
2022-08-24T10:34:37.410Z,2.47
2022-08-24T10:37:37.075Z,1.90
2022-08-24T10:40:31.629Z,2.33
2022-08-24T10:43:36.656Z,2.50
2022-08-24T10:46:39.122Z,3.17
2022-08-24T10:49:36.383Z,5.43
2022-08-24T10:52:50.480Z,1.63
2022-08-24T10:55:26.844Z,1.20
2022-08-24T10:58:44.020Z,1.80
2022-08-24T11:01:31.881Z,1.55
2022-08-24T11:04:25.323Z,1.27
2022-08-24T11:07:09.754Z,1.40
2022-08-24T11:10:09.980Z,1.33
2022-08-24T11:12:43.593Z,1.80
2022-08-24T11:15:28.268Z,1.40
2022-08-24T11:18:02.141Z,1.40
2022-08-24T11:20:43.307Z,1.20
2022-08-24T11:23:18.104Z,1.40
2022-08-24T11:26:15.792Z,1.40
2022-08-24T11:29:01.152Z,1.40
2022-08-24T11:31:40.510Z,1.50
2022-08-24T11:34:31.672Z,1.20
2022-08-24T11:36:59.242Z,1.10
2022-08-24T11:39:35.977Z,1.20
2022-08-24T11:42:36.652Z,1.20
2022-08-24T11:45:19.461Z,1.20
2022-08-24T11:48:03.747Z,1.10
2022-08-24T11:50:46.391Z,1.13
2022-08-24T11:53:59.783Z,1.40
2022-08-24T11:57:03.490Z,1.10
2022-08-24T11:59:55.163Z,1.10
2022-08-24T12:02:57.186Z,1.50
2022-08-24T12:06:06.107Z,1.05
2022-08-24T12:09:06.149Z,1.20
2022-08-24T12:11:56.559Z,1.27
2022-08-24T12:14:39.873Z,1.45
2022-08-24T12:17:27.243Z,1.60
2022-08-24T12:20:19.696Z,1.10
2022-08-24T12:22:48.620Z,0.90
2022-08-24T12:25:36.425Z,0.90
2022-08-24T12:28:06.441Z,1.02
2022-08-24T12:30:34.541Z,1.10
2022-08-24T12:33:08.215Z,1.13
2022-08-24T12:35:47.565Z,1.00
2022-08-24T12:38:47.838Z,1.17
2022-08-24T12:41:29.367Z,1.08
2022-08-24T12:44:11.950Z,1.20
2022-08-24T12:46:43.079Z,1.20
2022-08-24T12:49:31.094Z,1.10
2022-08-24T12:52:19.391Z,1.00
2022-08-24T12:55:19.700Z,1.15
2022-08-24T12:58:35.065Z,1.27
2022-08-24T13:01:06.908Z,1.23
2022-08-24T13:03:41.629Z,1.27
2022-08-24T13:06:20.360Z,1.40
2022-08-24T13:08:52.079Z,2.03
2022-08-24T13:11:31.645Z,1.27
2022-08-24T13:13:58.739Z,1.42
2022-08-24T13:16:56.786Z,1.52
2022-08-24T13:19:23.796Z,1.08
2022-08-24T13:21:59.115Z,1.23
2022-08-24T13:24:58.783Z,1.13
2022-08-24T13:28:00.284Z,1.10
2022-08-24T13:30:34.536Z,0.90
2022-08-24T13:33:10.780Z,1.05
2022-08-24T13:35:40.974Z,1.30
2022-08-24T13:38:33.394Z,1.60
2022-08-24T13:41:29.167Z,1.83
2022-08-24T13:44:10.963Z,1.10
2022-08-24T13:47:02.574Z,1.20
2022-08-24T13:49:51.815Z,1.10
2022-08-24T13:53:14.315Z,1.08
2022-08-24T13:55:52.012Z,1.30
2022-08-24T13:58:46.874Z,1.20
2022-08-24T14:01:37.397Z,1.50
2022-08-24T14:04:35.292Z,1.20
2022-08-24T14:07:25.852Z,0.90
2022-08-24T14:10:08.252Z,1.10
2022-08-24T14:13:00.004Z,1.23
2022-08-24T14:16:17.589Z,1.00
2022-08-24T14:19:30.658Z,1.00
2022-08-24T14:22:17.772Z,1.10
2022-08-24T14:25:22.635Z,1.20
2022-08-24T14:27:55.276Z,1.10
2022-08-24T14:30:25.119Z,1.27
2022-08-24T14:32:59.379Z,1.35
2022-08-24T14:36:03.341Z,1.05
2022-08-24T14:38:58.605Z,1.00
2022-08-24T14:41:48.010Z,0.90
2022-08-24T14:44:25.577Z,1.17
2022-08-24T14:47:04.604Z,1.20
2022-08-24T14:50:12.712Z,1.10
2022-08-24T14:53:09.842Z,1.10
2022-08-24T14:56:07.942Z,1.17
2022-08-24T14:59:22.759Z,1.02
2022-08-24T15:02:16.570Z,1.00
2022-08-24T15:04:52.227Z,1.20
2022-08-24T15:07:36.866Z,1.00
2022-08-24T15:10:14.969Z,1.10
2022-08-24T15:12:51.194Z,1.10
2022-08-24T15:15:36.227Z,1.10
2022-08-24T15:18:20.127Z,1.13
2022-08-24T15:21:24.082Z,0.98
2022-08-24T15:24:15.657Z,1.13
2022-08-24T15:27:13.636Z,1.00
2022-08-24T15:30:21.520Z,1.10
2022-08-24T15:33:09.640Z,1.10
2022-08-24T15:35:44.916Z,1.30
2022-08-24T15:38:30.040Z,1.10
2022-08-24T15:41:14.264Z,1.15
2022-08-24T15:44:04.467Z,1.33
2022-08-24T15:46:51.616Z,1.20
2022-08-24T15:49:26.987Z,1.02
2022-08-24T15:52:37.521Z,1.30
2022-08-24T15:55:07.606Z,1.20
2022-08-24T15:57:41.561Z,1.20
2022-08-24T16:00:40.480Z,1.40
2022-08-24T16:03:22.607Z,1.25
2022-08-24T16:05:54.012Z,1.27
2022-08-24T16:08:21.604Z,0.90
2022-08-24T16:11:07.071Z,1.00
2022-08-24T16:13:42.720Z,1.02
2022-08-24T16:16:15.874Z,1.10
2022-08-24T16:18:51.343Z,1.02
2022-08-24T16:21:34.088Z,1.10
2022-08-24T16:24:22.104Z,1.02
2022-08-24T16:26:51.653Z,0.98
2022-08-24T16:29:37.378Z,1.13
2022-08-24T16:32:22.735Z,1.13
2022-08-24T16:35:01.653Z,1.10
2022-08-24T16:37:28.798Z,1.00
2022-08-24T16:39:55.897Z,1.08
2022-08-24T16:42:27.152Z,1.10
2022-08-24T16:44:58.128Z,1.30
2022-08-24T16:47:28.663Z,1.15
2022-08-24T16:49:56.351Z,1.17
2022-08-24T16:52:23.492Z,1.10
2022-08-24T16:54:50.951Z,2.13
2022-08-24T16:57:24.034Z,1.20
2022-08-24T16:59:52.738Z,1.17
2022-08-24T17:02:22.271Z,1.02
2022-08-24T17:04:50.607Z,1.05
2022-08-24T17:07:26.260Z,1.20
2022-08-24T17:09:55.864Z,1.20
2022-08-24T17:12:24.564Z,1.10
2022-08-24T17:14:51.800Z,0.80
2022-08-24T17:17:21.639Z,1.10
2022-08-24T17:19:53.425Z,1.20
2022-08-24T17:22:23.425Z,1.25
2022-08-24T17:24:51.410Z,1.17
2022-08-24T17:27:22.793Z,1.00
2022-08-24T17:29:50.222Z,1.15
2022-08-24T17:32:17.260Z,1.20
2022-08-24T17:34:44.356Z,1.05
2022-08-24T17:37:12.027Z,1.40
2022-08-24T17:39:39.334Z,0.95
2022-08-24T17:42:20.921Z,1.40
2022-08-24T17:44:54.530Z,1.05
2022-08-24T17:47:22.284Z,1.30
2022-08-24T17:49:49.389Z,1.20
2022-08-24T17:52:16.603Z,1.40
2022-08-24T17:54:45.776Z,1.38
2022-08-24T17:57:14.367Z,1.75
2022-08-24T17:59:42.355Z,1.20
2022-08-24T18:02:14.963Z,1.20
2022-08-24T18:04:43.935Z,1.40
2022-08-24T18:07:42.236Z,1.40
2022-08-24T18:10:11.219Z,1.25
2022-08-24T18:12:38.882Z,1.40
2022-08-24T18:15:06.842Z,1.42
2022-08-24T18:17:39.641Z,1.50
2022-08-24T18:20:15.071Z,1.20
2022-08-24T18:22:52.769Z,1.58
2022-08-24T18:25:25.870Z,1.27
2022-08-24T18:27:57.523Z,1.40
2022-08-24T18:30:30.574Z,1.63
2022-08-24T18:33:01.691Z,1.52
2022-08-24T18:35:30.730Z,1.40
2022-08-24T18:37:57.767Z,1.58
2022-08-24T18:40:26.766Z,1.65
2022-08-24T18:43:02.960Z,1.85
2022-08-24T18:45:33.699Z,1.70
2022-08-24T18:48:02.169Z,1.70
2022-08-24T18:50:30.325Z,1.55
2022-08-24T18:52:59.417Z,1.90
2022-08-24T18:55:26.970Z,1.80
2022-08-24T18:57:55.081Z,1.92
2022-08-24T19:00:22.544Z,1.83
2022-08-24T19:02:50.352Z,1.48
2022-08-24T19:05:24.514Z,1.73
2022-08-24T19:07:57.221Z,1.58
2022-08-24T19:10:31.080Z,1.53
2022-08-24T19:13:03.422Z,1.85
2022-08-24T19:15:39.900Z,1.63
2022-08-24T19:18:11.061Z,1.60
2022-08-24T19:20:49.560Z,1.60
2022-08-24T19:23:22.561Z,1.60
2022-08-24T19:25:51.179Z,1.95
2022-08-24T19:28:19.174Z,1.55
2022-08-24T19:30:47.034Z,1.60
2022-08-24T19:33:24.535Z,1.50
2022-08-24T19:35:53.183Z,2.00
2022-08-24T19:38:24.815Z,1.83
2022-08-24T19:40:54.627Z,2.00
2022-08-24T19:43:24.631Z,1.80
2022-08-24T19:46:05.408Z,1.58
2022-08-24T19:48:37.339Z,1.60
2022-08-24T19:51:09.634Z,1.77
2022-08-24T19:53:37.872Z,1.98
2022-08-24T19:56:07.356Z,1.83
2022-08-24T19:58:45.506Z,1.80
2022-08-24T20:01:24.234Z,2.30
2022-08-24T20:03:54.216Z,1.60
2022-08-24T20:06:23.931Z,1.90
2022-08-24T20:08:53.183Z,1.70
2022-08-24T20:11:24.961Z,2.20
2022-08-24T20:13:53.180Z,1.88
2022-08-24T20:16:23.487Z,1.80
2022-08-24T20:18:51.216Z,1.63
2022-08-24T20:21:18.735Z,1.80
2022-08-24T20:23:46.224Z,2.33
2022-08-24T20:26:13.834Z,2.50
2022-08-24T20:28:49.918Z,2.50
2022-08-24T20:31:18.732Z,1.50
2022-08-24T20:33:46.113Z,1.73
2022-08-24T20:36:40.834Z,1.70
2022-08-24T20:39:11.526Z,1.80
2022-08-24T20:41:40.214Z,1.98
2022-08-24T20:44:09.244Z,1.80
2022-08-24T20:46:39.045Z,1.80
2022-08-24T20:49:08.248Z,1.70
2022-08-24T20:51:42.329Z,1.55
2022-08-24T20:54:11.323Z,1.80
2022-08-24T20:56:38.924Z,1.70
2022-08-24T20:59:10.801Z,2.03
2022-08-24T21:01:42.293Z,1.58
2022-08-24T21:04:10.493Z,1.75
2022-08-24T21:06:41.726Z,2.00
2022-08-24T21:09:12.708Z,1.50
2022-08-24T21:11:43.203Z,1.70
2022-08-24T21:14:10.301Z,1.90
2022-08-24T21:16:41.255Z,1.98
2022-08-24T21:19:11.249Z,1.80
2022-08-24T21:21:42.974Z,1.95
2022-08-24T21:24:11.329Z,1.45
2022-08-24T21:26:40.734Z,1.60
2022-08-24T21:29:10.218Z,1.85
2022-08-24T21:31:38.346Z,1.60
2022-08-24T21:34:26.638Z,1.60
2022-08-24T21:36:55.214Z,2.22
2022-08-24T21:39:23.268Z,1.63
2022-08-24T21:41:53.396Z,2.20
2022-08-24T21:44:22.501Z,1.80
2022-08-24T21:46:50.487Z,1.60
2022-08-24T21:49:18.615Z,2.05
2022-08-24T21:51:46.515Z,1.83
2022-08-24T21:54:13.650Z,1.80
2022-08-24T21:56:40.671Z,1.60
2022-08-24T21:59:07.930Z,1.80
2022-08-24T22:01:35.186Z,1.70
2022-08-24T22:04:03.782Z,1.85
2022-08-24T22:06:31.997Z,2.00
2022-08-24T22:09:01.083Z,1.70
2022-08-24T22:11:30.972Z,2.10
2022-08-24T22:13:59.288Z,1.75
2022-08-24T22:16:26.453Z,1.80
2022-08-24T22:18:55.016Z,1.88
2022-08-24T22:21:26.127Z,1.83
2022-08-24T22:23:56.967Z,2.20
2022-08-24T22:26:27.653Z,2.05
2022-08-24T22:28:56.734Z,2.17
2022-08-24T22:31:32.114Z,2.33
2022-08-24T22:34:03.659Z,1.70
2022-08-24T22:36:30.983Z,1.90
2022-08-24T22:39:02.860Z,2.05
2022-08-24T22:41:30.491Z,2.33
2022-08-24T22:44:18.479Z,2.20
2022-08-24T22:46:54.221Z,1.95
2022-08-24T22:49:27.049Z,1.85
2022-08-24T22:51:54.658Z,2.05
2022-08-24T22:54:23.337Z,2.00
2022-08-24T22:56:54.854Z,2.42
2022-08-24T22:59:43.846Z,2.13
2022-08-24T23:02:15.275Z,2.08
2022-08-24T23:04:48.485Z,2.08
2022-08-24T23:07:17.600Z,2.17
2022-08-24T23:09:46.812Z,2.10
2022-08-24T23:12:21.718Z,2.40
2022-08-24T23:14:51.697Z,2.00
2022-08-24T23:17:21.916Z,2.13
2022-08-24T23:19:59.968Z,2.47
2022-08-24T23:22:37.815Z,2.25
2022-08-24T23:25:11.244Z,2.25
2022-08-24T23:27:39.028Z,2.40
2022-08-24T23:30:12.368Z,2.60
2022-08-24T23:32:40.132Z,2.08
2022-08-24T23:35:08.192Z,2.25
2022-08-24T23:37:35.334Z,2.53
2022-08-24T23:40:04.058Z,2.20
2022-08-24T23:42:31.127Z,2.10
2022-08-24T23:45:00.248Z,2.13
2022-08-24T23:47:30.258Z,2.55
2022-08-24T23:50:10.835Z,2.10
2022-08-24T23:52:39.488Z,2.15
2022-08-24T23:55:21.389Z,2.45
2022-08-24T23:57:50.170Z,2.50
